createdAt,value
2023-02-11T00:00:24.960Z,22.20
2023-02-11T00:03:29.694Z,21.17
2023-02-11T00:06:34.230Z,21.25
2023-02-11T00:09:41.087Z,20.77
2023-02-11T00:12:43.475Z,20.92
2023-02-11T00:15:47.161Z,20.17
2023-02-11T00:18:50.348Z,20.60
2023-02-11T00:21:52.917Z,18.08
2023-02-11T00:24:57.135Z,20.92
2023-02-11T00:28:02.752Z,18.37
2023-02-11T00:31:05.510Z,22.50
2023-02-11T00:34:08.146Z,21.30
2023-02-11T00:37:14.893Z,20.42
2023-02-11T00:40:17.663Z,22.30
2023-02-11T00:43:22.620Z,21.25
2023-02-11T00:46:26.531Z,22.00
2023-02-11T00:49:28.799Z,21.85
2023-02-11T00:52:32.370Z,20.52
2023-02-11T00:55:34.744Z,21.60
2023-02-11T00:58:37.943Z,19.85
2023-02-11T01:01:40.470Z,19.70
2023-02-11T01:04:43.629Z,21.58
2023-02-11T01:07:46.303Z,21.90
2023-02-11T01:10:59.751Z,21.10
2023-02-11T01:14:02.349Z,20.75
2023-02-11T01:17:06.361Z,21.42
2023-02-11T01:20:15.452Z,18.70
2023-02-11T01:26:21.254Z,20.20
2023-02-11T01:29:26.255Z,18.02
2023-02-11T01:32:30.216Z,20.40
2023-02-11T01:35:32.804Z,17.77
2023-02-11T01:38:36.866Z,19.75
2023-02-11T01:41:39.535Z,19.35
2023-02-11T01:44:41.893Z,17.90
2023-02-11T01:47:44.973Z,17.98
2023-02-11T01:50:53.105Z,21.10
2023-02-11T01:54:16.281Z,18.90
2023-02-11T01:57:23.085Z,18.10
2023-02-11T02:00:40.981Z,19.15
2023-02-11T02:03:48.144Z,18.25
2023-02-11T02:06:59.614Z,18.60
2023-02-11T02:10:09.598Z,20.62
2023-02-11T02:13:12.860Z,16.87
2023-02-11T02:16:19.392Z,16.87
2023-02-11T02:19:48.937Z,18.67
2023-02-11T02:23:04.053Z,16.92
2023-02-11T02:26:28.430Z,15.93
2023-02-11T02:29:49.781Z,17.23
2023-02-11T02:33:22.517Z,19.02
2023-02-11T02:36:37.865Z,16.20
2023-02-11T02:39:40.324Z,16.02
2023-02-11T02:42:44.636Z,17.98
2023-02-11T02:45:46.960Z,18.58
2023-02-11T02:48:52.768Z,17.75
2023-02-11T02:52:20.575Z,17.95
2023-02-11T02:55:34.968Z,19.33
2023-02-11T02:59:03.476Z,18.30
2023-02-11T03:02:32.996Z,16.33
2023-02-11T03:06:08.012Z,15.40
2023-02-11T03:09:25.921Z,17.77
2023-02-11T03:12:31.508Z,15.75
2023-02-11T03:15:39.095Z,17.33
2023-02-11T03:18:46.670Z,17.00
2023-02-11T03:21:51.959Z,16.52
2023-02-11T03:24:56.509Z,18.37
2023-02-11T03:28:36.200Z,16.48
2023-02-11T03:31:58.086Z,16.73
2023-02-11T03:35:07.750Z,16.05
2023-02-11T03:38:24.372Z,17.23
2023-02-11T03:41:28.421Z,15.23
2023-02-11T03:44:37.172Z,15.07
2023-02-11T03:50:47.671Z,14.25
2023-02-11T03:53:55.025Z,16.58
2023-02-11T03:57:00.701Z,16.30
2023-02-11T04:00:06.078Z,17.58
2023-02-11T04:03:13.828Z,16.33
2023-02-11T04:06:23.603Z,16.35
2023-02-11T04:09:25.792Z,16.70
2023-02-11T04:12:28.292Z,17.02
2023-02-11T04:15:30.832Z,16.55
2023-02-11T04:18:35.493Z,16.92
2023-02-11T04:21:37.855Z,17.73
2023-02-11T04:24:40.998Z,16.40
2023-02-11T04:27:43.224Z,16.73
2023-02-11T04:30:46.177Z,17.17
2023-02-11T04:33:50.693Z,17.48
2023-02-11T04:36:55.290Z,16.85
2023-02-11T04:39:57.888Z,16.67
2023-02-11T04:43:00.425Z,15.60
2023-02-11T04:46:02.711Z,16.77
2023-02-11T04:49:05.891Z,16.52
2023-02-11T04:52:09.957Z,16.90
2023-02-11T04:55:12.998Z,15.32
2023-02-11T04:58:15.183Z,16.52
2023-02-11T05:01:17.895Z,16.25
2023-02-11T05:04:22.830Z,16.17
2023-02-11T05:07:26.480Z,16.37
2023-02-11T05:10:28.695Z,15.73
2023-02-11T05:13:32.148Z,15.02
2023-02-11T05:16:35.108Z,16.17
2023-02-11T05:19:37.736Z,16.37
2023-02-11T05:22:40.179Z,16.12
2023-02-11T05:25:42.668Z,15.77
2023-02-11T05:28:45.196Z,14.18
2023-02-11T05:31:47.641Z,16.35
2023-02-11T05:34:50.065Z,15.45
2023-02-11T05:37:52.673Z,15.63
2023-02-11T05:40:55.052Z,15.02
2023-02-11T05:43:57.591Z,15.52
2023-02-11T05:47:00.187Z,15.25
2023-02-11T05:50:03.430Z,15.85
2023-02-11T05:53:06.815Z,16.23
2023-02-11T05:56:10.545Z,14.85
2023-02-11T05:59:14.934Z,14.75
2023-02-11T06:02:17.565Z,15.85
2023-02-11T06:05:20.262Z,15.57
2023-02-11T06:08:22.552Z,16.62
2023-02-11T06:11:27.682Z,15.95
2023-02-11T06:14:35.497Z,18.00
2023-02-11T06:17:40.325Z,15.55
2023-02-11T06:20:44.067Z,18.35
2023-02-11T06:23:46.794Z,15.65
2023-02-11T06:26:49.751Z,17.02
2023-02-11T06:29:57.535Z,17.55
2023-02-11T06:32:59.821Z,16.25
2023-02-11T06:36:03.015Z,17.50
2023-02-11T06:39:05.795Z,17.92
2023-02-11T06:42:09.966Z,18.75
2023-02-11T06:45:13.400Z,17.40
2023-02-11T06:48:16.192Z,16.48
2023-02-11T06:51:21.164Z,16.67
2023-02-11T06:54:23.753Z,18.00
2023-02-11T06:57:28.076Z,16.42
2023-02-11T07:00:32.172Z,16.52
2023-02-11T07:03:36.763Z,17.35
2023-02-11T07:06:43.110Z,17.62
2023-02-11T07:09:45.684Z,19.95
2023-02-11T07:12:48.303Z,18.45
2023-02-11T07:15:53.229Z,19.62
2023-02-11T07:18:56.056Z,19.98
2023-02-11T07:21:58.182Z,21.37
2023-02-11T07:25:00.681Z,19.33
2023-02-11T07:28:03.735Z,20.77
2023-02-11T07:31:13.096Z,18.62
2023-02-11T07:37:18.062Z,17.45
2023-02-11T07:40:20.386Z,18.83
2023-02-11T07:43:22.920Z,19.62
2023-02-11T07:46:27.413Z,16.10
2023-02-11T07:49:30.857Z,15.93
2023-02-11T07:52:33.454Z,15.60
2023-02-11T07:55:37.482Z,15.90
2023-02-11T07:58:42.769Z,16.70
2023-02-11T08:01:45.563Z,16.17
2023-02-11T08:04:48.191Z,16.98
2023-02-11T08:07:54.577Z,17.58
2023-02-11T08:10:57.353Z,17.23
2023-02-11T08:13:59.919Z,17.42
2023-02-11T08:17:02.970Z,17.48
2023-02-11T08:20:06.936Z,17.27
2023-02-11T08:23:09.484Z,18.10
2023-02-11T08:26:16.067Z,17.27
2023-02-11T08:29:18.635Z,17.10
2023-02-11T08:32:22.046Z,17.02
2023-02-11T08:35:26.085Z,18.70
2023-02-11T08:38:28.364Z,17.20
2023-02-11T08:41:32.827Z,18.73
2023-02-11T08:44:35.100Z,18.02
2023-02-11T08:47:38.196Z,18.20
2023-02-11T08:50:41.385Z,16.62
2023-02-11T08:53:44.382Z,17.80
2023-02-11T08:56:51.639Z,17.62
2023-02-11T08:59:54.336Z,18.45
2023-02-11T09:02:58.726Z,17.65
2023-02-11T09:06:05.450Z,17.52
2023-02-11T09:09:13.508Z,18.92
2023-02-11T09:12:16.084Z,18.08
2023-02-11T09:15:18.313Z,18.70
2023-02-11T09:18:20.928Z,18.62
2023-02-11T09:21:25.812Z,18.27
2023-02-11T09:24:28.879Z,18.02
2023-02-11T09:27:31.211Z,18.10
2023-02-11T09:30:34.083Z,17.42
2023-02-11T09:33:37.474Z,18.55
2023-02-11T09:36:42.459Z,16.40
2023-02-11T09:39:46.334Z,18.45
2023-02-11T09:43:06.929Z,18.42
2023-02-11T09:46:15.392Z,19.05
2023-02-11T09:49:30.512Z,19.87
2023-02-11T09:52:49.214Z,21.02
2023-02-11T09:55:59.545Z,21.30
2023-02-11T09:59:01.846Z,20.65
2023-02-11T10:02:16.161Z,21.20
2023-02-11T10:05:25.418Z,19.30
2023-02-11T10:09:06.904Z,21.15
2023-02-11T10:12:28.118Z,19.98
2023-02-11T10:15:36.484Z,21.10
2023-02-11T10:18:51.270Z,21.37
2023-02-11T10:22:16.992Z,21.12
2023-02-11T10:25:22.522Z,21.62
2023-02-11T10:28:31.008Z,20.90
2023-02-11T10:31:42.447Z,20.23
2023-02-11T10:34:46.902Z,19.73
2023-02-11T10:37:50.053Z,20.08
2023-02-11T10:40:52.624Z,20.65
2023-02-11T10:43:55.636Z,18.10
2023-02-11T10:47:05.253Z,19.92
2023-02-11T10:50:26.852Z,20.23
2023-02-11T10:53:29.700Z,19.48
2023-02-11T10:56:37.929Z,19.98
2023-02-11T10:59:40.604Z,18.48
2023-02-11T11:02:44.875Z,19.48
2023-02-11T11:05:51.183Z,18.98
2023-02-11T11:08:54.255Z,19.27
2023-02-11T11:11:58.927Z,18.55
2023-02-11T11:15:01.800Z,21.70
2023-02-11T11:18:23.073Z,21.42
2023-02-11T11:21:36.918Z,22.52
2023-02-11T11:24:46.030Z,19.15
2023-02-11T11:27:51.039Z,20.30
2023-02-11T11:30:58.141Z,20.70
2023-02-11T11:34:20.951Z,16.50
2023-02-11T11:37:35.405Z,16.48
2023-02-11T11:40:40.562Z,16.45
2023-02-11T11:44:05.981Z,14.32
2023-02-11T11:47:11.821Z,15.70
2023-02-11T11:50:22.896Z,14.40
2023-02-11T11:53:53.288Z,14.90
2023-02-11T11:57:11.041Z,14.73
2023-02-11T12:00:17.773Z,16.62
2023-02-11T12:03:32.412Z,16.23
2023-02-11T12:06:41.205Z,15.65
2023-02-11T12:13:19.952Z,15.57
2023-02-11T12:16:38.068Z,15.30
2023-02-11T12:19:50.229Z,14.63
2023-02-11T12:22:56.022Z,17.20
2023-02-11T12:26:14.410Z,15.20
2023-02-11T12:29:32.412Z,16.30
2023-02-11T12:33:07.607Z,15.20
2023-02-11T12:36:19.833Z,13.25
2023-02-11T12:39:22.030Z,15.48
2023-02-11T12:43:11.437Z,15.38
2023-02-11T12:46:33.445Z,13.85
2023-02-11T12:50:09.137Z,15.13
2023-02-11T12:53:30.020Z,14.70
2023-02-11T12:56:52.922Z,14.15
2023-02-11T13:00:18.448Z,14.57
2023-02-11T13:03:27.266Z,13.95
2023-02-11T13:06:36.277Z,13.93
2023-02-11T13:09:51.921Z,13.82
2023-02-11T13:13:15.426Z,13.60
2023-02-11T13:16:27.761Z,12.93
2023-02-11T13:19:48.646Z,11.63
2023-02-11T13:23:22.061Z,12.20
2023-02-11T13:26:47.341Z,10.90
2023-02-11T13:29:56.285Z,11.10
2023-02-11T13:36:05.325Z,11.90
2023-02-11T13:39:21.099Z,11.23
2023-02-11T13:42:24.346Z,10.70
2023-02-11T13:45:52.031Z,11.82
2023-02-11T13:48:55.233Z,10.73
2023-02-11T13:51:59.253Z,11.43
2023-02-11T13:55:14.482Z,12.32
2023-02-11T13:58:28.960Z,11.55
2023-02-11T14:02:12.483Z,11.32
2023-02-11T14:05:51.976Z,11.57
2023-02-11T14:09:09.614Z,12.30
2023-02-11T14:12:31.868Z,11.48
2023-02-11T14:15:40.927Z,11.65
2023-02-11T14:18:51.917Z,12.20
2023-02-11T14:22:18.812Z,10.95
2023-02-11T14:25:27.375Z,11.02
2023-02-11T14:28:34.193Z,10.18
2023-02-11T14:32:06.110Z,11.73
2023-02-11T14:35:19.062Z,11.38
2023-02-11T14:39:07.670Z,11.05
2023-02-11T14:42:20.830Z,10.88
2023-02-11T14:45:27.290Z,11.27
2023-02-11T14:48:40.163Z,11.93
2023-02-11T14:51:44.006Z,12.02
2023-02-11T14:54:49.291Z,12.73
2023-02-11T14:58:25.393Z,11.82
2023-02-11T15:01:36.249Z,11.93
2023-02-11T15:04:40.422Z,11.50
2023-02-11T15:07:57.016Z,11.70
2023-02-11T15:11:02.916Z,12.27
2023-02-11T15:14:25.889Z,12.43
2023-02-11T15:17:34.403Z,11.57
2023-02-11T15:20:37.019Z,11.60
2023-02-11T15:23:43.188Z,13.80
2023-02-11T15:26:45.386Z,12.00
2023-02-11T15:29:50.642Z,11.70
2023-02-11T15:32:59.890Z,11.95
2023-02-11T15:36:11.141Z,13.43
2023-02-11T15:39:33.525Z,12.35
2023-02-11T15:42:51.788Z,12.55
2023-02-11T15:46:01.217Z,11.77
2023-02-11T15:49:04.244Z,12.18
2023-02-11T15:52:08.226Z,11.85
2023-02-11T15:55:15.745Z,12.25
2023-02-11T15:58:18.307Z,12.13
2023-02-11T16:01:34.080Z,13.27
2023-02-11T16:04:37.728Z,12.43
2023-02-11T16:07:53.542Z,13.52
2023-02-11T16:11:08.935Z,11.88
2023-02-11T16:14:31.637Z,12.82
2023-02-11T16:17:34.460Z,12.52
2023-02-11T16:20:36.673Z,13.18
2023-02-11T16:23:45.504Z,12.95
2023-02-11T16:26:53.456Z,13.45
2023-02-11T16:29:58.132Z,15.07
2023-02-11T16:33:00.672Z,22.77
2023-02-11T16:36:13.936Z,22.70
2023-02-11T16:39:18.201Z,18.90
2023-02-11T16:42:20.654Z,16.27
2023-02-11T16:45:22.957Z,14.93
2023-02-11T16:48:25.666Z,11.98
2023-02-11T16:51:27.999Z,13.18
2023-02-11T16:54:30.625Z,13.32
2023-02-11T16:57:32.842Z,13.55
2023-02-11T17:00:36.441Z,14.80
2023-02-11T17:03:40.599Z,14.38
2023-02-11T17:06:43.504Z,15.30
2023-02-11T17:09:45.700Z,14.20
2023-02-11T17:12:49.912Z,12.63
2023-02-11T17:15:52.485Z,13.52
2023-02-11T17:18:55.243Z,13.40
2023-02-11T17:21:57.441Z,13.23
2023-02-11T17:25:04.803Z,13.50
2023-02-11T17:28:09.451Z,13.35
2023-02-11T17:31:12.300Z,13.23
2023-02-11T17:34:14.972Z,13.65
2023-02-11T17:37:17.781Z,13.98
2023-02-11T17:40:21.558Z,15.63
2023-02-11T17:43:25.169Z,15.48
2023-02-11T17:46:32.384Z,14.27
2023-02-11T17:49:35.132Z,14.80
2023-02-11T17:52:37.889Z,15.32
2023-02-11T17:55:40.588Z,13.85
2023-02-11T17:58:42.873Z,15.52
2023-02-11T18:01:45.700Z,16.12
2023-02-11T18:04:48.334Z,13.30
2023-02-11T18:07:50.696Z,15.13
2023-02-11T18:10:53.341Z,15.10
2023-02-11T18:13:55.992Z,13.90
2023-02-11T18:16:58.672Z,15.43
2023-02-11T18:20:01.081Z,16.08
2023-02-11T18:23:04.617Z,16.30
2023-02-11T18:26:07.969Z,16.40
2023-02-11T18:29:10.570Z,15.25
2023-02-11T18:32:13.683Z,14.77
2023-02-11T18:35:18.168Z,15.18
2023-02-11T18:38:22.247Z,14.95
2023-02-11T18:41:24.850Z,16.10
2023-02-11T18:44:27.480Z,15.02
2023-02-11T18:47:31.320Z,16.62
2023-02-11T18:50:33.685Z,14.77
2023-02-11T18:53:36.397Z,15.52
2023-02-11T18:56:39.210Z,15.65
2023-02-11T18:59:42.875Z,16.23
2023-02-11T19:02:45.137Z,16.27
2023-02-11T19:05:49.382Z,16.55
2023-02-11T19:08:53.647Z,16.05
2023-02-11T19:11:57.926Z,17.55
2023-02-11T19:15:00.864Z,16.40
2023-02-11T19:18:03.428Z,17.55
2023-02-11T19:21:13.134Z,16.10
2023-02-11T19:24:18.936Z,17.62
2023-02-11T19:27:21.421Z,16.75
2023-02-11T19:30:24.293Z,16.70
2023-02-11T19:33:26.544Z,17.33
2023-02-11T19:36:29.462Z,16.95
2023-02-11T19:39:31.754Z,17.40
2023-02-11T19:42:34.366Z,17.30
2023-02-11T19:45:39.606Z,18.20
2023-02-11T19:48:42.362Z,17.77
2023-02-11T19:51:44.597Z,16.50
2023-02-11T19:54:47.203Z,16.85
2023-02-11T19:57:50.078Z,17.02
2023-02-11T20:00:52.999Z,16.77
2023-02-11T20:03:57.485Z,16.73
2023-02-11T20:06:59.870Z,16.10
2023-02-11T20:10:02.707Z,17.05
2023-02-11T20:13:05.129Z,17.20
2023-02-11T20:16:13.450Z,16.73
2023-02-11T20:19:18.655Z,15.27
2023-02-11T20:22:22.134Z,16.23
2023-02-11T20:25:24.641Z,14.57
2023-02-11T20:28:27.547Z,15.18
2023-02-11T20:31:32.241Z,13.62
2023-02-11T20:34:34.998Z,14.75
2023-02-11T20:37:38.708Z,14.68
2023-02-11T20:40:41.327Z,15.27
2023-02-11T20:43:46.162Z,16.23
2023-02-11T20:46:49.392Z,15.68
2023-02-11T20:49:54.933Z,14.30
2023-02-11T20:52:57.543Z,13.05
2023-02-11T20:56:10.748Z,11.98
2023-02-11T20:59:14.304Z,10.88
2023-02-11T21:02:16.620Z,10.73
2023-02-11T21:05:19.745Z,10.30
2023-02-11T21:08:21.889Z,11.18
2023-02-11T21:11:24.588Z,10.57
2023-02-11T21:14:28.733Z,10.10
2023-02-11T21:17:32.049Z,10.10
2023-02-11T21:20:34.353Z,10.73
2023-02-11T21:23:39.532Z,11.40
2023-02-11T21:26:42.321Z,10.90
2023-02-11T21:29:53.748Z,11.35
2023-02-11T21:33:00.462Z,10.80
2023-02-11T21:36:04.554Z,9.98
2023-02-11T21:39:07.091Z,10.20
2023-02-11T21:42:09.776Z,9.88
2023-02-11T21:45:12.048Z,11.23
2023-02-11T21:48:15.240Z,11.32
2023-02-11T21:51:20.742Z,10.75
2023-02-11T21:54:25.748Z,11.00
2023-02-11T21:57:28.036Z,11.38
2023-02-11T22:00:31.235Z,11.55
2023-02-11T22:03:33.793Z,9.00
2023-02-11T22:06:35.980Z,13.10
2023-02-11T22:09:39.638Z,11.32
2023-02-11T22:12:42.189Z,10.65
2023-02-11T22:15:44.646Z,10.70
2023-02-11T22:18:46.956Z,11.45
2023-02-11T22:21:49.813Z,10.90
2023-02-11T22:24:53.970Z,10.55
2023-02-11T22:27:56.610Z,11.85
2023-02-11T22:30:59.150Z,11.88
2023-02-11T22:34:03.484Z,11.15
2023-02-11T22:37:07.437Z,12.00
2023-02-11T22:40:10.515Z,10.75
2023-02-11T22:43:12.721Z,12.43
2023-02-11T22:46:18.118Z,11.70
2023-02-11T22:49:21.644Z,11.20
2023-02-11T22:52:24.143Z,11.45
2023-02-11T22:55:26.699Z,9.43
2023-02-11T22:58:29.386Z,10.63
2023-02-11T23:01:32.087Z,10.20
2023-02-11T23:04:34.770Z,11.12
2023-02-11T23:07:37.191Z,11.65
2023-02-11T23:10:40.343Z,10.30
2023-02-11T23:13:43.334Z,11.63
2023-02-11T23:16:46.103Z,10.07
2023-02-11T23:19:48.445Z,11.43
2023-02-11T23:22:51.122Z,11.10
2023-02-11T23:25:53.518Z,11.40
2023-02-11T23:28:58.008Z,12.55
2023-02-11T23:32:00.437Z,9.98
2023-02-11T23:35:03.312Z,11.43
2023-02-11T23:38:05.805Z,10.40
2023-02-11T23:41:08.570Z,9.75
2023-02-11T23:44:11.003Z,8.20
2023-02-11T23:47:13.815Z,10.98
2023-02-11T23:50:16.228Z,11.65
2023-02-11T23:53:18.954Z,12.65
2023-02-11T23:56:26.924Z,11.98
2023-02-11T23:59:29.809Z,12.00
